Terminal Aerodrome Forecast
Issued by NWS Flagstaff, AZ

Home | Current Version | Previous Version | Text Only | Print | Product List | Glossary On
Versions: 1 2 3 4 5 6 7 8 9 10 11 12
000
FTUS45 KFGZ 060542
TAFINW
TAF
KINW 060542Z 0606/0706 15006KT P6SM SCT250
     FM061400 18016G28KT P6SM SCT250
     FM061800 19022G32KT P6SM FEW120 SCT200
     FM070200 21012KT P6SM SCT120 BKN150=

USA.gov is the U.S. government's official web portal to all federal, state and local government web resources and services.